• Join FlightAware (Why Join?)
  • Login
  • US Flag 
03:42AM EDT


 

Airport Tracker/Info


-or-


 

Live Flight TrackerFlight Track Log ✈ XSR335 ✈ 27-May-2014 ✈ KMKC - KAPA

Flight Track Log - Related Links

Times and Time Zones

All times are in EDT time to prevent confusion due to time zone crossing. See the XSR335 flight status page for this flight to view local times or setup timezone preferences in your user account.

Time Position Orientation Groundspeed Altitude Reporting Facility
EDT Latitude Longitude Course Direction KTS MPH feet Rate Location/Type
07:13AM 39.1167 -94.6000 284° West 158 182 1,500  Level Kansas City TRACON
07:18AM 39.2075 -95.0747 292° West 329 379 16,900 2,880 Climbing FlightAware ADS-B
07:19AM 39.2298 -95.1468 292° West 327 376 18,800 2,760 Climbing FlightAware ADS-B
07:20AM 39.2547 -95.2272 292° West 326 375 20,800 2,460 Climbing FlightAware ADS-B
07:21AM 39.2938 -95.3579 292° West 326 375 23,600 2,280 Climbing FlightAware ADS-B
07:21AM 39.2948 -95.3650 281° West 318 366 23,800 1,800 Climbing FlightAware ADS-B
07:21AM 39.2957 -95.4199 271° West 320 368 24,600 1,680 Climbing FlightAware ADS-B
07:22AM 39.2967 -95.4796 271° West 327 376 25,500 1,740 Climbing FlightAware ADS-B
07:22AM 39.2975 -95.5394 271° West 334 384 26,400 1,620 Climbing FlightAware ADS-B
07:23AM 39.2983 -95.6019 271° West 340 391 27,200 1,620 Climbing FlightAware ADS-B
07:23AM 39.2990 -95.6633 271° West 344 396 28,100 1,800 Climbing FlightAware ADS-B
07:24AM 39.2996 -95.7256 271° West 348 400 29,000 1,620 Climbing FlightAware ADS-B
07:24AM 39.3003 -95.7904 271° West 355 409 29,800 1,500 Climbing FlightAware ADS-B
07:25AM 39.3009 -95.8569 271° West 360 414 30,600 1,620 Climbing FlightAware ADS-B
07:25AM 39.3015 -95.9219 271° West 364 419 31,500 1,860 Climbing FlightAware ADS-B
07:26AM 39.3020 -95.9884 270° West 360 414 32,500 1,920 Climbing FlightAware ADS-B
07:26AM 39.3024 -96.0533 270° West 355 409 33,500 1,920 Climbing FlightAware ADS-B
07:27AM 39.3010 -96.1174 268° West 348 400 34,500 1,920 Climbing FlightAware ADS-B
07:27AM 39.2993 -96.1802 268° West 341 392 35,500 1,980 Climbing FlightAware ADS-B
07:28AM 39.2971 -96.2616 268° West 335 386 36,900 1,980 Climbing FlightAware ADS-B
07:29AM 39.2957 -96.3212 268° West 321 369 37,900 1,620 Climbing FlightAware ADS-B
07:29AM 39.2942 -96.3784 268° West 318 366 38,600 1,140 Climbing FlightAware ADS-B
07:30AM 39.2927 -96.4388 268° West 323 372 39,100 660 Climbing FlightAware ADS-B
07:30AM 39.2911 -96.4984 268° West 333 383 39,300 480 Climbing FlightAware ADS-B
07:31AM 39.2895 -96.5594 268° West 342 394 39,600 540 Climbing FlightAware ADS-B
07:31AM 39.2881 -96.6121 268° West 349 402 39,800 420 Climbing FlightAware ADS-B
07:32AM 39.2864 -96.6760 268° West 359 413 40,000 180 Climbing FlightAware ADS-B
07:32AM 39.2845 -96.7423 268° West 371 427 40,000  Level FlightAware ADS-B
07:33AM 39.2826 -96.8106 268° West 384 442 40,000  Level FlightAware ADS-B
07:33AM 39.2805 -96.8807 268° West 394 453 40,000  Level FlightAware ADS-B
07:34AM 39.2783 -96.9530 268° West 404 465 40,000  Level FlightAware ADS-B
07:34AM 39.2761 -97.0272 268° West 413 475 40,000  Level FlightAware ADS-B
07:35AM 39.2737 -97.1028 268° West 419 482 40,000  Level FlightAware ADS-B
07:35AM 39.2714 -97.1786 268° West 421 484 40,000  Level FlightAware ADS-B
07:36AM 39.2690 -97.2541 268° West 421 484 40,000  Level FlightAware ADS-B
07:36AM 39.2665 -97.3297 268° West 422 486 40,000  Level FlightAware ADS-B
07:37AM 39.2638 -97.4063 268° West 422 486 40,000  Level FlightAware ADS-B
07:37AM 39.2612 -97.4828 268° West 422 486 40,000  Level FlightAware ADS-B
07:38AM 39.2585 -97.5587 268° West 421 484 40,000  Level FlightAware ADS-B
07:38AM 39.2559 -97.6342 267° West 421 484 40,000  Level FlightAware ADS-B
07:39AM 39.2531 -97.7102 267° West 421 484 40,000  Level FlightAware ADS-B
07:39AM 39.2503 -97.7867 267° West 421 484 40,000  Level FlightAware ADS-B
07:40AM 39.2474 -97.8633 267° West 422 486 40,000  Level FlightAware ADS-B
07:40AM 39.2446 -97.9393 267° West 422 486 40,000  Level FlightAware ADS-B
07:41AM 39.2416 -98.0151 267° West 422 486 40,000  Level FlightAware ADS-B
07:41AM 39.2386 -98.0912 267° West 422 486 40,000  Level FlightAware ADS-B
07:42AM 39.2355 -98.1676 267° West 422 486 40,000  Level FlightAware ADS-B
07:42AM 39.2324 -98.2455 267° West 422 486 40,000  Level FlightAware ADS-B
07:43AM 39.2292 -98.3206 267° West 422 486 40,000  Level FlightAware ADS-B
07:43AM 39.2260 -98.3968 267° West 422 486 40,000  Level FlightAware ADS-B
07:44AM 39.2217 -98.4964 267° West 421 484 40,000  Level FlightAware ADS-B
07:45AM 39.2160 -98.6272 267° West 421 484 40,000  Level FlightAware ADS-B
07:45AM 39.2126 -98.7025 267° West 421 484 40,000  Level FlightAware ADS-B
07:46AM 39.2091 -98.7786 267° West 421 484 40,000  Level FlightAware ADS-B
07:46AM 39.2056 -98.8547 267° West 420 483 40,000  Level FlightAware ADS-B
07:47AM 39.2021 -98.9296 267° West 420 483 40,000  Level FlightAware ADS-B
07:47AM 39.1985 -99.0051 267° West 420 483 40,000  Level FlightAware ADS-B
07:48AM 39.1944 -99.0905 266° West 420 483 40,000  Level FlightAware ADS-B
07:49AM 39.1861 -99.2689 266° West 418 481 40,000  Level Kansas City Center
07:50AM 39.1792 -99.4175 267° West 418 481 40,000  Level Kansas City Center
07:51AM 39.1678 -99.5908 265° West 419 482 40,000  Level Denver Center
07:52AM 39.1614 -99.7353 267° West 420 483 40,000  Level Denver Center
07:58AM 39.1090 -100.6369 266° West 418 481 40,000  Level FlightAware ADS-B
07:59AM 39.1052 -100.6982 266° West 419 482 40,000  Level FlightAware ADS-B
08:00AM 39.0968 -100.8321 265° West 420 483 40,000  Level FlightAware ADS-B
08:00AM 39.0905 -100.9300 265° West 421 484 40,000  Level FlightAware ADS-B (KEIK)
08:02AM 39.0759 -101.1533 265° West 425 489 40,000  Level FlightAware ADS-B (KEIK)
08:02AM 39.0699 -101.2446 265° West 427 491 40,000  Level FlightAware ADS-B (KEIK)
08:03AM 39.0643 -101.3262 265° West 428 493 40,000  Level FlightAware ADS-B (KEIK)
08:03AM 39.0590 -101.4041 265° West 429 494 40,000  Level FlightAware ADS-B (KEIK)
08:04AM 39.0546 -101.4678 265° West 430 495 40,000  Level FlightAware ADS-B (KEIK)
08:04AM 39.0482 -101.5593 265° West 430 495 40,000  Level FlightAware ADS-B (KEIK)
08:05AM 39.0411 -101.6609 265° West 431 496 40,000  Level FlightAware ADS-B (KEIK)
08:06AM 39.0357 -101.7375 265° West 431 496 40,000  Level FlightAware ADS-B (KEIK)
08:06AM 39.0302 -101.8142 265° West 432 497 40,000  Level FlightAware ADS-B
08:07AM 39.0214 -101.9340 265° West 433 498 40,000  Level FlightAware ADS-B
08:08AM 39.0134 -102.0437 265° West 433 498 40,000  Level FlightAware ADS-B (KEIK)
08:08AM 39.0078 -102.1178 265° West 432 497 40,000  Level FlightAware ADS-B (KEIK)
08:09AM 39.0017 -102.1991 265° West 431 496 40,000  Level FlightAware ADS-B
08:09AM 39.0017 -102.2931 272° West 425 489 40,000  Level FlightAware ADS-B (KEIK)
08:09AM 39.0064 -102.3225 282° West 420 483 40,000 -300 Level FlightAware ADS-B (KEIK)
08:10AM 39.0171 -102.3947 280° West 420 483 39,800 -1,020 Descending FlightAware ADS-B (KEIK)
08:10AM 39.0283 -102.4723 281° West 406 467 39,000 -1,680 Descending FlightAware ADS-B (KEIK)
08:11AM 39.0380 -102.5383 281° West 395 455 38,100 -2,100 Descending FlightAware ADS-B (KEIK)
08:11AM 39.0494 -102.6151 281° West 401 461 36,900 -2,280 Descending FlightAware ADS-B (KEIK)
08:12AM 39.0594 -102.6828 281° West 415 478 35,800 -2,100 Descending FlightAware ADS-B (KEIK)
08:12AM 39.0686 -102.7457 281° West 428 493 34,700 -2,040 Descending FlightAware ADS-B (KEIK)
08:13AM 39.0829 -102.8441 281° West 431 496 33,400 -2,340 Descending FlightAware ADS-B
08:14AM 39.1013 -102.9722 280° West 436 502 31,600 -2,520 Descending FlightAware ADS-B (KFLY)
08:14AM 39.1126 -103.0510 280° West 437 503 30,300 -2,580 Descending FlightAware ADS-B
08:15AM 39.1269 -103.1511 280° West 433 498 28,600 -2,700 Descending FlightAware ADS-B (KEIK)
08:16AM 39.1344 -103.2041 280° West 433 498 27,300 -2,520 Descending FlightAware ADS-B (KFLY)
08:16AM 39.1496 -103.3112 280° West 444 511 25,800 -2,640 Descending FlightAware ADS-B
08:17AM 39.1567 -103.3626 280° West 446 513 24,400 -2,820 Descending FlightAware ADS-B
08:17AM 39.1731 -103.4799 280° West 438 504 22,900 -2,820 Descending FlightAware ADS-B (KFLY)
08:18AM 39.1840 -103.5586 280° West 426 490 21,500 -2,580 Descending FlightAware ADS-B (KEIK)
08:18AM 39.1941 -103.6326 280° West 414 476 20,300 -2,460 Descending FlightAware ADS-B (KEIK)
08:19AM 39.2075 -103.7297 280° West 400 460 18,700 -2,520 Descending FlightAware ADS-B (KFLY)
08:19AM 39.2176 -103.8038 280° West 399 459 17,300 -2,520 Descending FlightAware ADS-B
08:20AM 39.2303 -103.8974 280° West 383 441 15,700 -2,400 Descending FlightAware ADS-B (KEIK)
08:21AM 39.2396 -103.9668 280° West 378 435 14,500 -2,280 Descending FlightAware ADS-B (KEIK)
08:21AM 39.2476 -104.0258 280° West 379 436 13,400 -2,340 Descending FlightAware ADS-B (KEIK)
08:21AM 39.2524 -104.0605 292° West 373 429 12,600 -2,220 Descending FlightAware ADS-B (KEIK)
08:22AM 39.2788 -104.1298 298° West 361 415 11,600 -1,740 Descending FlightAware ADS-B
08:22AM 39.3008 -104.1836 297° West 332 382 10,900 -840 Descending FlightAware ADS-B
08:23AM 39.3230 -104.2386 298° West 268 308 10,800 -120 Descending FlightAware ADS-B (KEIK)
08:23AM 39.3390 -104.2778 298° West 236 272 10,800  Level FlightAware ADS-B (KEIK)
08:24AM 39.3547 -104.3159 298° West 235 270 10,800  Level FlightAware ADS-B (KEIK)
08:24AM 39.3698 -104.3530 298° West 242 278 10,800  Level FlightAware ADS-B (KEIK)
08:25AM 39.3855 -104.3916 298° West 241 277 10,800  Level FlightAware ADS-B (KEIK)
08:26AM 39.4056 -104.4410 298° West 238 274 10,800  Level FlightAware ADS-B (KEIK)
08:26AM 39.4214 -104.4799 297° West 237 273 10,800 -240 Level FlightAware ADS-B (KEIK)
08:26AM 39.4319 -104.5059 297° West 237 273 10,600 -840 Descending FlightAware ADS-B (KEIK)
08:27AM 39.4473 -104.5441 297° West 232 267 10,100 -960 Descending FlightAware ADS-B (KEIK)
08:27AM 39.4568 -104.5677 298° West 233 268 9,800 -600 Descending FlightAware ADS-B (KEIK)
08:28AM 39.4672 -104.5932 298° West 228 262 9,700 -960 Descending FlightAware ADS-B (KEIK)
08:28AM 39.4748 -104.6121 298° West 230 265 9,200 -1,500 Descending FlightAware ADS-B
08:28AM 39.4824 -104.6309 298° West 230 265 8,900 -1,440 Descending FlightAware ADS-B
08:28AM 39.4894 -104.6484 297° West 229 264 8,500 -1,560 Descending FlightAware ADS-B
08:29AM 39.4973 -104.6678 297° West 229 264 8,100 -1,080 Descending FlightAware ADS-B
08:29AM 39.5168 -104.6945 324° Northwest 215 247 7,800 -420 Descending FlightAware ADS-B (KEIK)
08:29AM 39.5305 -104.7075 324° Northwest 212 244 7,800  Level FlightAware ADS-B
08:30AM 39.5505 -104.7256 329° Northwest 210 242 7,800  Level FlightAware ADS-B (KEIK)
08:30AM 39.5663 -104.7375 330° Northwest 207 238 7,800  Level FlightAware ADS-B (KEIK)
08:30AM 39.5738 -104.7430 330° Northwest 205 236 7,800 -180 Level FlightAware ADS-B
08:31AM 39.6014 -104.7614 337° Northwest 201 231 7,700 -300 Descending FlightAware ADS-B (KEIK)
08:31AM 39.6168 -104.7696 338° Northwest 194 223 7,600 -360 Descending FlightAware ADS-B (KEIK)
08:31AM 39.6300 -104.7762 339° North 192 221 7,500 -600 Descending FlightAware ADS-B
08:32AM 39.6432 -104.7837 330° Northwest 186 214 7,300 -480 Descending FlightAware ADS-B (KEIK)
08:32AM 39.6497 -104.7910 315° West 178 205 7,300  Level FlightAware ADS-B (KEIK)
08:32AM 39.6527 -104.8000 286° West 158 182 7,300 -420 Level FlightAware ADS-B (KEIK)
08:32AM 39.6543 -104.8180 273° West 159 183 7,100 -660 Descending FlightAware ADS-B (KEIK)
08:32AM 39.6542 -104.8276 267° West 159 183 7,000 -600 Descending FlightAware ADS-B (KEIK)
08:33AM 39.6524 -104.8373 249° West 153 176 6,900 -600 Descending FlightAware ADS-B (KEIK)
08:33AM 39.6483 -104.8449 229° Southwest 150 173 6,800 -840 Descending FlightAware ADS-B (KEIK)
08:33AM 39.6466 -104.8467 220° Southwest 151 174 6,700 -720 Descending FlightAware ADS-B
08:33AM 39.6433 -104.8495 208° Southwest 153 176 6,700 -420 Level FlightAware ADS-B (KEIK)
08:33AM 39.6369 -104.8524 195° South 152 175 6,600 -720 Descending FlightAware ADS-B
08:33AM 39.6323 -104.8533 185° South 152 175 6,500 -840 Descending FlightAware ADS-B (KEIK)
08:34AM 39.6164 -104.8529 176° South 141 162 6,200 -720 Descending FlightAware ADS-B
08:34AM 39.6323 -104.8533 185° South 152 175 6,000 -720 Descending FlightAware ADS-B (KEIK)
08:34AM 39.5918 -104.8518 178° South 122 140 5,700 -720 Descending FlightAware ADS-B